Time;durP1;ratioP1;P1;durP2;ratioP2;P2;SDS_P1;SDS_P2;PMS_P1;PMS_P2;Temp;Humidity;BMP_temperature;BMP_pressure;BME280_temperature;BME280_humidity;BME280_pressure;Samples;Min_cycle;Max_cycle;Signal;HPM_P1;HPM_P2
2021/09/03 00:00:19;;;;;;;9.27;6.50;;;20.80;99.90;;;;;;4946076;28;20467;-71
2021/09/03 00:02:47;;;;;;;9.47;6.73;;;20.80;99.90;;;;;;4953333;28;20432;-71
2021/09/03 00:05:18;;;;;;;9.97;7.20;;;20.80;99.90;;;;;;4951635;28;20921;-69
2021/09/03 00:07:45;;;;;;;9.47;6.47;;;20.80;99.90;;;;;;4948243;28;20576;-71
2021/09/03 00:10:15;;;;;;;9.87;7.27;;;21.10;99.90;;;;;;4954157;28;20785;-71
2021/09/03 00:12:43;;;;;;;11.43;9.83;;;21.30;99.90;;;;;;4949181;28;20445;-71
2021/09/03 00:15:13;;;;;;;11.20;9.13;;;21.30;99.90;;;;;;4955551;28;20892;-70
2021/09/03 00:17:41;;;;;;;10.20;7.57;;;21.60;99.90;;;;;;4953067;28;20801;-70
2021/09/03 00:20:10;;;;;;;11.27;8.13;;;21.60;99.90;;;;;;4952971;29;20429;-70
2021/09/03 00:22:38;;;;;;;11.43;9.27;;;21.80;99.90;;;;;;4950780;29;20429;-72
2021/09/03 00:25:08;;;;;;;11.90;9.20;;;21.70;99.90;;;;;;4943709;28;20465;-71
2021/09/03 00:27:36;;;;;;;12.50;10.17;;;22.00;99.90;;;;;;4942512;28;20521;-71
2021/09/03 00:30:05;;;;;;;13.30;11.57;;;21.80;99.90;;;;;;4944256;28;20175;-70
2021/09/03 00:32:33;;;;;;;12.13;9.13;;;21.70;99.90;;;;;;4947781;29;20183;-73
2021/09/03 00:35:00;;;;;;;14.00;11.73;;;21.90;99.90;;;;;;4942454;28;20529;-71
2021/09/03 00:37:28;;;;;;;12.03;9.00;;;22.10;99.90;;;;;;4946720;28;20674;-70
2021/09/03 00:39:55;;;;;;;10.77;6.77;;;22.10;99.90;;;;;;4951460;29;20604;-69
2021/09/03 00:42:22;;;;;;;12.10;8.97;;;22.30;99.90;;;;;;4951150;28;20231;-70
2021/09/03 00:44:50;;;;;;;11.80;8.07;;;22.60;99.90;;;;;;4951899;28;20187;-71
2021/09/03 00:47:18;;;;;;;11.37;9.20;;;22.70;99.90;;;;;;4952850;28;20474;-70
2021/09/03 00:49:45;;;;;;;9.33;7.67;;;22.70;99.90;;;;;;4954633;28;20534;-70
2021/09/03 00:52:13;;;;;;;8.97;6.83;;;22.90;99.90;;;;;;4958136;29;20183;-71
2021/09/03 00:54:41;;;;;;;14.07;9.20;;;22.90;99.90;;;;;;4966985;29;20257;-72
2021/09/03 00:57:09;;;;;;;8.87;6.43;;;22.90;99.90;;;;;;4960945;28;20270;-70
2021/09/03 00:59:36;;;;;;;9.63;7.70;;;22.90;99.90;;;;;;4939938;29;20662;-70
2021/09/03 01:02:04;;;;;;;8.80;6.10;;;23.10;99.90;;;;;;4942247;28;20252;-71
2021/09/03 01:04:32;;;;;;;9.20;7.33;;;23.00;99.90;;;;;;4948206;29;20187;-70
2021/09/03 01:06:59;;;;;;;10.60;9.13;;;23.00;99.90;;;;;;4947876;28;20223;-69
2021/09/03 01:09:27;;;;;;;10.03;7.83;;;23.20;99.90;;;;;;4932653;29;20187;-71
2021/09/03 01:11:54;;;;;;;9.43;5.60;;;23.40;99.90;;;;;;4950837;28;20193;-72
2021/09/03 01:14:23;;;;;;;420.47;155.23;;;23.50;99.90;;;;;;4946747;28;20194;-71
2021/09/03 01:16:50;;;;;;;6.50;5.17;;;23.60;99.90;;;;;;4939602;28;20434;-71
2021/09/03 01:19:18;;;;;;;18.10;8.50;;;23.70;99.90;;;;;;4947056;28;20180;-70
2021/09/03 01:21:54;;;;;;;13.07;7.33;;;23.80;99.70;;;;;;4951307;28;20598;-68
2021/09/03 01:24:22;;;;;;;8.27;5.10;;;23.90;99.40;;;;;;4943984;28;20188;-70
2021/09/03 01:26:49;;;;;;;7.13;6.33;;;24.10;99.40;;;;;;4961143;28;20219;-70
2021/09/03 01:29:16;;;;;;;5.53;4.20;;;24.10;99.10;;;;;;4959584;28;20182;-73
2021/09/03 01:31:44;;;;;;;6.70;6.10;;;24.20;98.90;;;;;;4972672;28;20182;-75
2021/09/03 01:34:12;;;;;;;6.23;5.73;;;24.20;99.00;;;;;;4951817;28;20591;-70
2021/09/03 01:36:40;;;;;;;5.73;5.27;;;24.40;98.80;;;;;;4960962;28;20183;-70
2021/09/03 01:39:07;;;;;;;4.73;4.33;;;24.50;98.80;;;;;;4957846;28;20195;-69
2021/09/03 01:41:35;;;;;;;7.20;6.67;;;24.60;98.60;;;;;;4961515;28;20863;-69
2021/09/03 01:44:02;;;;;;;5.23;4.77;;;24.70;98.40;;;;;;4973073;28;20277;-70
2021/09/03 01:46:29;;;;;;;5.33;4.83;;;24.80;98.10;;;;;;4936464;29;20667;-70
2021/09/03 01:48:57;;;;;;;3.97;3.57;;;24.80;97.90;;;;;;4947470;28;20267;-72
2021/09/03 01:51:24;;;;;;;6.33;5.80;;;24.90;98.00;;;;;;4962418;28;20211;-70
2021/09/03 01:53:52;;;;;;;7.77;7.13;;;25.00;97.80;;;;;;4953461;28;20274;-68
2021/09/03 01:56:19;;;;;;;6.23;5.60;;;25.20;97.40;;;;;;4936373;29;20195;-70
2021/09/03 01:58:46;;;;;;;8.20;6.67;;;25.30;97.60;;;;;;4958480;28;20187;-68
2021/09/03 02:01:14;;;;;;;7.07;4.67;;;25.20;98.00;;;;;;4974153;28;20178;-70
2021/09/03 02:03:41;;;;;;;8.30;7.27;;;24.90;98.20;;;;;;4955540;28;20603;-70
2021/09/03 02:06:09;;;;;;;6.90;4.97;;;25.00;98.30;;;;;;4958127;28;20210;-67
2021/09/03 02:08:36;;;;;;;7.23;6.60;;;24.70;98.60;;;;;;4958266;28;20182;-68
2021/09/03 02:11:03;;;;;;;9.97;9.23;;;24.60;98.60;;;;;;4958201;29;20531;-70
2021/09/03 02:13:30;;;;;;;5.87;5.37;;;24.30;99.10;;;;;;4956833;28;20180;-69
2021/09/03 02:15:58;;;;;;;12.73;6.77;;;24.60;99.00;;;;;;4961774;28;20187;-71
2021/09/03 02:18:25;;;;;;;6.80;5.37;;;24.90;98.20;;;;;;4961283;28;20232;-70
2021/09/03 02:20:52;;;;;;;5.60;4.23;;;24.80;98.10;;;;;;4970176;28;20202;-69
2021/09/03 02:23:20;;;;;;;8.03;6.80;;;24.90;98.10;;;;;;4964008;28;20183;-71
2021/09/03 02:25:47;;;;;;;7.53;5.47;;;25.10;97.80;;;;;;4962900;28;20177;-72
2021/09/03 02:28:16;;;;;;;9.03;7.47;;;25.10;98.00;;;;;;4961368;28;20203;-69
2021/09/03 02:30:44;;;;;;;9.03;8.10;;;25.00;98.40;;;;;;4970719;28;20654;-71
2021/09/03 02:33:13;;;;;;;7.30;6.60;;;24.80;98.30;;;;;;4965023;28;20190;-72
2021/09/03 02:35:42;;;;;;;15.33;6.97;;;24.70;98.20;;;;;;4980088;28;20574;-73
2021/09/03 02:38:13;;;;;;;17.10;8.50;;;24.80;98.00;;;;;;4991250;28;20194;-70
2021/09/03 02:40:41;;;;;;;7.57;5.60;;;25.10;97.40;;;;;;4968299;28;20644;-72
2021/09/03 02:43:08;;;;;;;6.70;4.17;;;24.90;97.30;;;;;;4950737;28;20234;-71
2021/09/03 02:45:36;;;;;;;7.03;4.90;;;25.00;97.10;;;;;;4961118;28;20194;-71
2021/09/03 02:48:04;;;;;;;20.37;9.73;;;25.10;97.20;;;;;;4946178;28;20220;-73
2021/09/03 02:50:34;;;;;;;21.23;10.53;;;25.10;96.80;;;;;;4938065;28;20290;-69
2021/09/03 02:53:01;;;;;;;20.97;9.97;;;25.30;96.80;;;;;;4957570;28;20179;-72
2021/09/03 02:55:29;;;;;;;37.43;17.53;;;25.30;96.50;;;;;;4952511;28;20186;-72
2021/09/03 02:57:57;;;;;;;461.33;182.77;;;25.20;96.50;;;;;;4962178;28;20322;-70
2021/09/03 03:00:25;;;;;;;14.07;6.60;;;25.20;96.80;;;;;;4952988;28;20200;-73
2021/09/03 03:02:53;;;;;;;17.10;6.03;;;25.60;96.30;;;;;;4977262;28;20187;-73
2021/09/03 03:05:23;;;;;;;22.07;10.17;;;25.30;96.00;;;;;;4960890;28;20192;-72
2021/09/03 03:07:51;;;;;;;13.60;6.23;;;25.60;96.00;;;;;;4951218;28;20219;-73
2021/09/03 03:10:19;;;;;;;19.30;9.30;;;25.40;95.80;;;;;;4957660;28;20179;-74
2021/09/03 03:12:52;;;;;;;17.53;10.43;;;25.60;95.90;;;;;;4956682;28;20593;-71
2021/09/03 03:15:20;;;;;;;19.60;8.77;;;25.70;95.70;;;;;;4946967;28;20288;-72
2021/09/03 03:17:47;;;;;;;13.83;6.27;;;25.80;95.70;;;;;;4951867;28;20183;-70
2021/09/03 03:20:16;;;;;;;20.47;7.90;;;25.90;95.20;;;;;;4941425;28;20208;-72
2021/09/03 03:22:46;;;;;;;20.40;8.87;;;25.50;95.30;;;;;;4963076;28;20183;-68
2021/09/03 03:25:13;;;;;;;299.57;116.53;;;25.70;95.30;;;;;;4926229;29;20188;-72
2021/09/03 03:27:41;;;;;;;326.53;127.87;;;25.40;95.10;;;;;;4951152;28;20229;-69
2021/09/03 03:30:09;;;;;;;19.33;9.27;;;25.80;95.10;;;;;;4966430;28;20183;-70
2021/09/03 03:32:37;;;;;;;19.27;9.43;;;25.60;95.30;;;;;;4949636;28;20191;-70
2021/09/03 03:35:04;;;;;;;14.37;6.43;;;25.50;95.10;;;;;;4949654;28;20187;-70
2021/09/03 03:37:32;;;;;;;19.63;9.10;;;25.70;95.00;;;;;;4946445;28;20195;-72
2021/09/03 03:39:59;;;;;;;20.43;8.47;;;25.80;94.70;;;;;;4942749;28;20176;-73
2021/09/03 03:42:26;;;;;;;357.10;137.00;;;25.60;94.50;;;;;;4958975;28;20313;-68
2021/09/03 03:44:54;;;;;;;546.77;220.50;;;25.50;94.70;;;;;;4967454;28;20187;-72
2021/09/03 03:47:21;;;;;;;14.67;6.50;;;25.70;94.30;;;;;;4975959;28;20245;-71
2021/09/03 03:49:48;;;;;;;321.17;126.50;;;25.70;94.30;;;;;;4976027;28;20190;-71
2021/09/03 03:52:16;;;;;;;529.57;223.10;;;25.50;94.50;;;;;;4948548;28;20280;-70
2021/09/03 03:54:44;;;;;;;24.33;11.07;;;25.60;94.40;;;;;;4954880;28;20631;-69
2021/09/03 03:57:11;;;;;;;33.90;10.10;;;25.70;94.30;;;;;;4957591;28;20192;-70
2021/09/03 03:59:38;;;;;;;351.77;141.53;;;25.90;94.10;;;;;;4958409;28;20209;-74
2021/09/03 04:02:06;;;;;;;22.47;10.10;;;26.30;93.80;;;;;;4947288;28;20183;-71
2021/09/03 04:04:33;;;;;;;26.63;11.20;;;25.90;93.60;;;;;;4937101;28;20685;-73
2021/09/03 04:07:01;;;;;;;23.00;8.17;;;25.40;94.00;;;;;;4956947;28;20210;-72
2021/09/03 04:09:28;;;;;;;22.60;9.20;;;25.60;93.90;;;;;;4950182;28;20275;-72
2021/09/03 04:11:56;;;;;;;21.23;9.00;;;25.40;93.90;;;;;;4960222;28;20189;-73
2021/09/03 04:14:23;;;;;;;24.23;11.17;;;25.40;93.80;;;;;;4950324;28;20239;-74
2021/09/03 04:16:50;;;;;;;21.57;8.30;;;25.60;93.70;;;;;;4961911;28;20202;-71
2021/09/03 04:19:18;;;;;;;541.23;225.87;;;25.70;93.60;;;;;;4954715;28;20536;-69
2021/09/03 04:21:45;;;;;;;565.23;238.07;;;25.60;93.50;;;;;;4954819;28;20242;-75
2021/09/03 04:24:13;;;;;;;525.80;211.50;;;25.40;93.80;;;;;;4947112;28;20199;-72
2021/09/03 04:26:40;;;;;;;22.40;10.13;;;25.20;93.80;;;;;;4957878;28;20231;-73
2021/09/03 04:29:07;;;;;;;22.03;9.17;;;25.10;93.70;;;;;;4952260;28;20195;-71
2021/09/03 04:31:35;;;;;;;11.50;7.37;;;25.10;93.60;;;;;;4951650;28;20186;-72
2021/09/03 04:34:02;;;;;;;584.03;234.80;;;24.90;94.30;;;;;;4958090;28;20210;-74
2021/09/03 04:36:29;;;;;;;635.47;265.40;;;25.10;94.60;;;;;;4948279;28;20194;-69
2021/09/03 04:38:57;;;;;;;592.43;234.63;;;24.90;94.60;;;;;;4960554;28;20262;-72
2021/09/03 04:41:24;;;;;;;561.03;228.43;;;24.70;94.90;;;;;;4954498;28;20203;-73
2021/09/03 04:43:51;;;;;;;151.57;53.73;;;24.70;95.10;;;;;;4955086;28;20326;-70
2021/09/03 04:46:19;;;;;;;14.77;6.33;;;25.00;94.90;;;;;;4953133;28;20302;-72
2021/09/03 04:48:46;;;;;;;558.03;212.60;;;24.80;94.90;;;;;;4949117;28;20242;-72
2021/09/03 04:51:13;;;;;;;177.77;67.07;;;25.40;94.70;;;;;;4950042;28;20402;-72
2021/09/03 04:53:41;;;;;;;22.50;10.60;;;25.20;94.90;;;;;;4943610;28;20191;-72
2021/09/03 04:56:08;;;;;;;21.50;8.83;;;25.20;94.50;;;;;;4948245;28;20183;-72
2021/09/03 04:58:35;;;;;;;476.10;189.33;;;25.40;94.80;;;;;;4943826;28;20700;-73
2021/09/03 05:01:03;;;;;;;511.17;205.23;;;25.40;94.60;;;;;;4948030;28;20190;-72
2021/09/03 05:03:30;;;;;;;308.50;122.83;;;25.40;94.80;;;;;;4949507;29;20214;-70
2021/09/03 05:05:57;;;;;;;29.97;12.00;;;25.20;95.10;;;;;;4951439;28;20191;-72
2021/09/03 05:08:25;;;;;;;21.87;8.87;;;25.00;95.10;;;;;;4959272;28;20529;-72
2021/09/03 05:10:52;;;;;;;17.40;7.57;;;24.50;95.90;;;;;;4946789;28;20431;-74
2021/09/03 05:13:19;;;;;;;8.73;7.17;;;24.40;95.70;;;;;;4955925;28;20202;-69
2021/09/03 05:15:47;;;;;;;21.53;8.40;;;24.30;96.10;;;;;;4934224;29;20183;-71
2021/09/03 05:18:15;;;;;;;21.30;8.60;;;24.40;96.20;;;;;;4951108;28;20276;-72
2021/09/03 05:20:42;;;;;;;481.63;187.47;;;24.30;96.70;;;;;;4927519;28;20180;-71
2021/09/03 05:23:10;;;;;;;10.60;5.97;;;24.30;96.70;;;;;;4948301;28;20195;-73
2021/09/03 05:25:37;;;;;;;13.27;6.07;;;24.20;97.10;;;;;;4956107;28;20175;-71
2021/09/03 05:28:06;;;;;;;12.40;7.73;;;24.00;97.70;;;;;;4954170;28;20207;-74
2021/09/03 05:30:33;;;;;;;26.63;11.77;;;24.30;97.80;;;;;;4945082;28;20211;-73
2021/09/03 05:33:01;;;;;;;23.13;10.97;;;24.20;97.80;;;;;;4949595;28;20203;-70
2021/09/03 05:35:28;;;;;;;13.10;7.63;;;24.20;97.80;;;;;;4950055;28;20180;-72
2021/09/03 05:37:56;;;;;;;519.67;201.27;;;24.20;97.90;;;;;;4952683;28;20186;-72
2021/09/03 05:40:24;;;;;;;21.27;10.70;;;24.00;98.50;;;;;;4948643;28;20266;-70
2021/09/03 05:42:51;;;;;;;22.87;7.73;;;23.70;98.90;;;;;;4955693;28;20262;-75
2021/09/03 05:45:19;;;;;;;27.30;14.07;;;24.00;99.10;;;;;;4950927;28;20203;-70
2021/09/03 05:47:47;;;;;;;558.83;206.60;;;24.10;98.80;;;;;;4936625;29;20705;-74
2021/09/03 05:50:16;;;;;;;393.23;148.00;;;24.10;98.70;;;;;;4950636;28;20593;-74
2021/09/03 05:52:43;;;;;;;423.37;161.43;;;24.00;98.80;;;;;;4952945;28;20205;-70
2021/09/03 05:55:11;;;;;;;639.33;240.43;;;24.10;98.90;;;;;;4947074;28;20199;-70
2021/09/03 05:57:39;;;;;;;25.73;9.60;;;24.00;98.90;;;;;;4953515;28;20215;-69
2021/09/03 06:00:06;;;;;;;26.53;10.67;;;23.60;99.70;;;;;;4957846;28;20258;-72
2021/09/03 06:02:34;;;;;;;20.57;8.83;;;23.60;99.90;;;;;;4962947;28;20684;-70
2021/09/03 06:05:01;;;;;;;24.27;8.03;;;23.60;99.90;;;;;;4954508;28;20186;-73
2021/09/03 06:07:29;;;;;;;527.17;195.37;;;23.70;99.90;;;;;;4944370;28;20222;-71
2021/09/03 06:09:56;;;;;;;39.53;12.53;;;23.60;99.90;;;;;;4945668;28;20212;-72
2021/09/03 06:12:23;;;;;;;377.83;136.40;;;23.50;99.90;;;;;;4946419;28;20642;-74
2021/09/03 06:14:51;;;;;;;42.67;13.97;;;23.30;99.90;;;;;;4952447;28;20183;-68
2021/09/03 06:17:18;;;;;;;24.50;9.73;;;23.20;99.90;;;;;;4951573;28;20283;-68
2021/09/03 06:19:46;;;;;;;29.87;10.80;;;23.20;99.90;;;;;;4945079;28;20258;-69
2021/09/03 06:22:13;;;;;;;14.43;7.37;;;23.20;99.90;;;;;;4950209;28;20191;-66
2021/09/03 06:24:40;;;;;;;23.17;9.23;;;22.80;99.90;;;;;;4953074;28;20238;-69
2021/09/03 06:27:10;;;;;;;30.77;11.93;;;22.80;99.90;;;;;;4950850;28;20344;-72
2021/09/03 06:29:45;;;;;;;544.90;198.23;;;22.90;99.90;;;;;;4945001;28;20239;-69
2021/09/03 06:32:14;;;;;;;14.57;6.77;;;22.50;99.90;;;;;;4945100;28;20579;-72
2021/09/03 06:34:53;;;;;;;166.60;57.37;;;22.50;99.90;;;;;;4943895;28;20654;-70
2021/09/03 06:37:22;;;;;;;14.80;7.13;;;22.40;99.90;;;;;;4950197;28;20191;-71
2021/09/03 06:39:50;;;;;;;40.50;10.60;;;22.10;99.90;;;;;;4968624;28;20186;-68
2021/09/03 06:42:18;;;;;;;25.17;10.90;;;22.10;99.90;;;;;;4960980;28;20225;-72
2021/09/03 06:44:46;;;;;;;26.07;13.03;;;21.90;99.90;;;;;;4957682;28;20191;-68
2021/09/03 06:47:16;;;;;;;520.53;190.27;;;21.80;99.90;;;;;;4950103;28;20289;-70
2021/09/03 06:49:44;;;;;;;56.53;16.67;;;21.60;99.90;;;;;;4949674;28;20432;-72
2021/09/03 06:52:13;;;;;;;523.17;183.27;;;21.60;99.90;;;;;;4957174;28;20639;-71
2021/09/03 06:54:41;;;;;;;21.70;13.23;;;21.60;99.90;;;;;;4954642;28;20429;-69
2021/09/03 06:57:08;;;;;;;522.43;185.63;;;21.30;99.90;;;;;;4956432;28;20195;-70
2021/09/03 06:59:36;;;;;;;588.77;207.53;;;21.30;99.90;;;;;;4957256;28;20428;-73
2021/09/03 07:02:03;;;;;;;16.20;4.87;;;21.00;99.90;;;;;;4942493;28;20445;-69
2021/09/03 07:04:31;;;;;;;22.00;8.13;;;20.90;99.90;;;;;;4948147;28;20187;-69
2021/09/03 07:06:58;;;;;;;33.23;9.43;;;20.60;99.90;;;;;;4957236;28;20199;-69
2021/09/03 07:09:25;;;;;;;19.97;8.70;;;20.40;99.90;;;;;;4956917;28;20195;-69
2021/09/03 07:11:53;;;;;;;574.47;192.00;;;20.10;99.90;;;;;;4956259;28;20193;-71
2021/09/03 07:14:20;;;;;;;11.03;6.80;;;20.00;99.90;;;;;;4947128;29;20431;-70
2021/09/03 07:16:47;;;;;;;28.17;8.47;;;19.90;99.90;;;;;;4950545;28;20191;-67
2021/09/03 07:19:15;;;;;;;24.47;8.33;;;19.80;99.90;;;;;;4957822;28;20546;-68
2021/09/03 07:21:43;;;;;;;30.97;8.57;;;19.70;99.90;;;;;;4955524;29;20528;-69
2021/09/03 07:24:10;;;;;;;551.37;184.63;;;19.60;99.90;;;;;;4948095;28;20187;-70
2021/09/03 07:26:38;;;;;;;42.80;13.87;;;19.60;99.90;;;;;;4958256;28;20795;-70
2021/09/03 07:29:05;;;;;;;20.03;7.20;;;19.50;99.90;;;;;;4953895;28;20195;-74
2021/09/03 07:31:36;;;;;;;23.80;7.97;;;19.60;99.90;;;;;;4951162;29;20270;-69
2021/09/03 07:34:03;;;;;;;436.50;123.70;;;19.50;99.90;;;;;;4949243;29;20183;-69
2021/09/03 07:36:30;;;;;;;705.70;197.30;;;19.40;99.90;;;;;;4959002;28;20444;-71
2021/09/03 07:38:58;;;;;;;704.00;201.53;;;19.30;99.90;;;;;;4959317;28;20428;-71
2021/09/03 07:41:25;;;;;;;700.97;210.17;;;19.30;99.90;;;;;;4969345;28;20435;-70
2021/09/03 07:43:53;;;;;;;459.70;129.80;;;19.30;99.90;;;;;;4968135;29;20461;-72
2021/09/03 07:46:20;;;;;;;13.77;5.47;;;19.20;99.90;;;;;;4953706;28;20464;-71
2021/09/03 07:48:47;;;;;;;13.13;5.83;;;19.20;99.90;;;;;;4954693;28;20206;-68
2021/09/03 07:51:15;;;;;;;13.70;6.90;;;19.20;99.90;;;;;;4948889;28;20528;-71
2021/09/03 07:53:43;;;;;;;14.30;5.37;;;19.10;99.90;;;;;;4967266;28;20213;-71
2021/09/03 07:56:11;;;;;;;13.57;6.23;;;19.10;99.90;;;;;;4955106;28;20177;-69
2021/09/03 07:58:38;;;;;;;15.97;5.73;;;19.10;99.90;;;;;;4952696;28;20186;-71
2021/09/03 08:01:06;;;;;;;29.83;9.10;;;19.00;99.90;;;;;;4967472;28;20203;-70
2021/09/03 08:03:33;;;;;;;747.27;213.30;;;19.00;99.90;;;;;;4948891;28;20191;-69
2021/09/03 08:06:01;;;;;;;272.93;74.67;;;19.00;99.90;;;;;;4963090;28;20420;-72
2021/09/03 08:08:28;;;;;;;404.80;118.73;;;18.90;99.90;;;;;;4960307;28;20221;-69
2021/09/03 08:10:55;;;;;;;25.40;8.87;;;19.00;99.90;;;;;;4972655;28;20903;-72
2021/09/03 08:13:23;;;;;;;27.30;9.73;;;18.90;99.90;;;;;;4970904;28;20206;-70
2021/09/03 08:15:50;;;;;;;342.50;115.03;;;18.90;99.90;;;;;;4957258;28;20184;-67
2021/09/03 08:18:18;;;;;;;358.87;124.77;;;18.90;99.90;;;;;;4956697;28;20464;-71
2021/09/03 08:20:45;;;;;;;26.40;11.80;;;18.90;99.90;;;;;;4968259;28;20428;-70
2021/09/03 08:23:13;;;;;;;18.90;7.43;;;18.90;99.90;;;;;;4957151;28;20225;-69
2021/09/03 08:25:41;;;;;;;24.00;15.13;;;18.90;99.90;;;;;;4950738;28;20187;-72
2021/09/03 08:28:08;;;;;;;26.53;12.77;;;18.80;99.90;;;;;;4942716;28;20223;-69
2021/09/03 08:30:36;;;;;;;499.37;172.30;;;18.80;99.90;;;;;;4949710;28;20233;-70
2021/09/03 08:33:03;;;;;;;14.10;7.80;;;18.80;99.90;;;;;;4936755;29;20792;-70
2021/09/03 08:35:31;;;;;;;13.83;5.97;;;18.80;99.90;;;;;;4955421;28;20221;-72
2021/09/03 08:37:58;;;;;;;13.00;6.03;;;18.80;99.90;;;;;;4970455;28;20583;-71
2021/09/03 08:40:26;;;;;;;21.07;5.07;;;18.80;99.90;;;;;;4969493;28;20183;-69
2021/09/03 08:42:53;;;;;;;13.13;5.83;;;18.80;99.90;;;;;;4951080;28;20639;-71
2021/09/03 08:45:21;;;;;;;13.37;5.93;;;18.70;99.90;;;;;;4966287;28;20183;-67
2021/09/03 08:47:48;;;;;;;13.10;6.13;;;18.70;99.90;;;;;;4974774;28;20561;-67
2021/09/03 08:50:18;;;;;;;13.13;6.33;;;18.70;99.90;;;;;;4958660;28;20334;-68
2021/09/03 08:52:48;;;;;;;15.37;7.13;;;18.70;99.90;;;;;;4956202;28;20669;-66
2021/09/03 08:55:16;;;;;;;12.80;6.73;;;18.70;99.90;;;;;;4963009;28;20183;-68
2021/09/03 08:57:44;;;;;;;12.10;5.23;;;18.60;99.90;;;;;;4974029;28;20229;-68
2021/09/03 09:00:33;;;;;;;12.87;6.60;;;18.70;99.90;;;;;;4965724;28;20207;-67
2021/09/03 09:03:02;;;;;;;13.23;6.03;;;18.60;99.90;;;;;;4953196;28;20190;-68
2021/09/03 09:05:53;;;;;;;13.27;6.03;;;18.60;99.90;;;;;;4974801;28;20190;-68
2021/09/03 09:08:22;;;;;;;12.63;5.93;;;18.60;99.90;;;;;;4964315;28;20293;-67
2021/09/03 09:10:56;;;;;;;13.77;6.90;;;18.60;99.90;;;;;;4954941;28;20993;-72
2021/09/03 09:13:29;;;;;;;14.83;6.57;;;18.60;99.90;;;;;;4956593;28;20324;-67
2021/09/03 09:16:10;;;;;;;13.33;5.00;;;18.60;99.90;;;;;;4970332;28;20276;-68
2021/09/03 09:18:39;;;;;;;22.00;6.67;;;18.60;99.90;;;;;;4967829;28;20187;-70
2021/09/03 09:21:16;;;;;;;12.77;5.57;;;18.60;99.90;;;;;;4954180;28;20194;-71
2021/09/03 09:23:53;;;;;;;12.33;4.73;;;18.60;99.90;;;;;;4972100;28;20188;-71
2021/09/03 09:26:23;;;;;;;20.53;7.73;;;18.60;99.90;;;;;;4964568;28;20331;-71
2021/09/03 09:28:51;;;;;;;12.50;4.97;;;18.50;99.90;;;;;;4949175;28;20222;-70
2021/09/03 09:31:37;;;;;;;13.63;6.27;;;18.50;99.90;;;;;;4955829;28;20179;-69
2021/09/03 09:34:34;;;;;;;12.47;5.27;;;18.50;99.90;;;;;;4949685;29;20198;-72
2021/09/03 09:37:04;;;;;;;14.73;5.23;;;18.50;99.90;;;;;;4942896;29;20190;-71
2021/09/03 09:39:57;;;;;;;13.17;5.67;;;18.50;99.90;;;;;;4945630;29;20682;-72
2021/09/03 09:42:27;;;;;;;12.33;4.93;;;18.40;99.90;;;;;;4940303;29;20225;-68
2021/09/03 09:45:14;;;;;;;13.20;5.83;;;18.40;99.90;;;;;;4954899;28;20210;-69
2021/09/03 09:47:43;;;;;;;13.23;6.37;;;18.40;99.90;;;;;;4941179;29;20708;-70
2021/09/03 09:50:31;;;;;;;12.87;4.93;;;18.40;99.90;;;;;;4954486;29;20591;-71
2021/09/03 09:53:16;;;;;;;13.70;8.03;;;18.40;99.90;;;;;;4942347;28;20186;-71
2021/09/03 09:55:44;;;;;;;13.83;7.83;;;18.40;99.90;;;;;;4949308;28;20190;-69
2021/09/03 09:58:14;;;;;;;12.53;5.67;;;18.40;99.90;;;;;;4954300;29;20250;-71
2021/09/03 10:00:42;;;;;;;14.43;8.57;;;18.40;99.90;;;;;;4954639;28;20267;-71
2021/09/03 10:03:10;;;;;;;13.17;7.07;;;18.30;99.90;;;;;;4947386;28;20706;-72
2021/09/03 10:05:38;;;;;;;12.50;5.63;;;18.30;99.90;;;;;;4945342;29;20184;-70
2021/09/03 10:08:08;;;;;;;20.27;6.53;;;18.30;99.90;;;;;;4954453;28;20221;-69
2021/09/03 10:10:35;;;;;;;13.43;7.40;;;18.30;99.90;;;;;;4953763;28;20701;-71
2021/09/03 10:13:03;;;;;;;11.90;4.80;;;18.40;99.90;;;;;;4953223;28;20438;-68
2021/09/03 10:15:30;;;;;;;21.23;8.03;;;18.30;99.90;;;;;;4948231;29;20432;-70
2021/09/03 10:17:58;;;;;;;12.87;7.43;;;18.30;99.90;;;;;;4947939;29;20197;-72
2021/09/03 10:20:25;;;;;;;12.43;6.70;;;18.30;99.90;;;;;;4950561;29;20428;-71
2021/09/03 10:22:52;;;;;;;12.67;7.03;;;18.30;99.90;;;;;;4955245;28;20221;-71
2021/09/03 10:25:20;;;;;;;14.93;8.97;;;18.20;99.90;;;;;;4950627;28;20255;-71
2021/09/03 10:28:09;;;;;;;14.63;7.47;;;18.20;99.90;;;;;;4957434;28;21081;-70
2021/09/03 10:30:36;;;;;;;12.27;6.80;;;18.20;99.90;;;;;;4958039;29;20810;-70
2021/09/03 10:33:13;;;;;;;15.60;6.53;;;18.20;99.90;;;;;;4953847;29;20284;-69
2021/09/03 10:35:40;;;;;;;11.47;5.57;;;18.20;99.90;;;;;;4955954;28;20437;-68
2021/09/03 10:38:43;;;;;;;11.63;5.63;;;18.20;99.90;;;;;;4956598;29;20840;-71
2021/09/03 10:41:47;;;;;;;13.43;6.63;;;18.10;99.90;;;;;;4921122;29;21105;-70
2021/09/03 10:44:14;;;;;;;12.20;5.83;;;18.10;99.90;;;;;;4951827;29;20433;-70
2021/09/03 10:46:43;;;;;;;15.77;7.23;;;18.10;99.90;;;;;;4952791;28;20471;-71
2021/09/03 10:49:11;;;;;;;13.47;7.73;;;18.20;99.90;;;;;;4945122;28;20923;-73
2021/09/03 10:51:39;;;;;;;20.83;5.60;;;18.00;99.90;;;;;;4952974;29;20198;-70
2021/09/03 10:54:20;;;;;;;15.20;7.03;;;18.10;99.90;;;;;;4949985;28;20598;-72
2021/09/03 10:56:58;;;;;;;14.33;6.80;;;18.00;99.90;;;;;;4949452;29;20184;-70
2021/09/03 10:59:25;;;;;;;13.07;6.47;;;18.10;99.90;;;;;;4946790;29;20672;-72
2021/09/03 11:01:56;;;;;;;12.93;6.17;;;18.00;99.90;;;;;;4956808;28;20436;-71
2021/09/03 11:04:25;;;;;;;12.60;5.27;;;18.10;99.90;;;;;;4973003;28;20194;-71
2021/09/03 11:06:55;;;;;;;11.80;5.07;;;18.00;99.90;;;;;;4982101;28;20296;-69
2021/09/03 11:09:26;;;;;;;12.80;6.37;;;18.00;99.90;;;;;;4945847;28;20211;-71
2021/09/03 11:12:22;;;;;;;12.93;6.00;;;18.00;99.90;;;;;;4969635;28;20660;-73
2021/09/03 11:14:55;;;;;;;13.57;6.23;;;18.10;99.90;;;;;;4952387;28;20204;-71
2021/09/03 11:17:26;;;;;;;12.20;6.07;;;18.00;99.90;;;;;;4960078;28;20429;-70
2021/09/03 11:19:54;;;;;;;12.03;5.37;;;18.10;99.90;;;;;;4976412;28;20763;-70
2021/09/03 11:22:23;;;;;;;12.00;4.90;;;18.10;99.90;;;;;;4975363;28;20454;-70
2021/09/03 11:25:06;;;;;;;11.83;4.93;;;18.10;99.90;;;;;;4960637;28;20213;-69
2021/09/03 11:27:35;;;;;;;12.73;5.00;;;18.10;99.90;;;;;;4967388;28;20673;-70
2021/09/03 11:30:13;;;;;;;11.97;5.47;;;18.00;99.90;;;;;;4932233;29;20785;-72
2021/09/03 11:32:41;;;;;;;14.40;10.40;;;18.10;99.90;;;;;;4953851;28;20194;-70
2021/09/03 11:35:12;;;;;;;11.90;5.80;;;18.10;99.90;;;;;;4953630;28;20432;-69
2021/09/03 11:38:14;;;;;;;13.90;7.03;;;18.10;99.90;;;;;;4944008;28;20500;-72
2021/09/03 11:40:41;;;;;;;17.63;10.53;;;18.00;99.90;;;;;;4947173;29;20187;-70
2021/09/03 11:43:09;;;;;;;11.80;5.53;;;18.00;99.90;;;;;;4938973;28;20480;-71
2021/09/03 11:45:43;;;;;;;11.83;5.87;;;18.00;99.90;;;;;;4944531;29;20524;-70
2021/09/03 11:48:15;;;;;;;14.03;9.33;;;18.00;99.90;;;;;;4949856;28;20527;-69
2021/09/03 11:50:45;;;;;;;12.90;7.53;;;17.90;99.90;;;;;;4936224;29;20522;-71
2021/09/03 11:53:22;;;;;;;13.03;5.90;;;18.00;99.90;;;;;;4956660;29;20478;-70
2021/09/03 11:55:52;;;;;;;12.70;7.27;;;18.00;99.90;;;;;;4956001;28;21260;-70
2021/09/03 11:58:24;;;;;;;11.93;6.63;;;17.90;99.90;;;;;;4955071;29;20472;-70
2021/09/03 12:00:54;;;;;;;12.03;6.43;;;17.90;99.90;;;;;;4952454;28;20457;-69
2021/09/03 12:03:32;;;;;;;21.10;6.43;;;17.80;99.90;;;;;;4955705;28;20432;-68
2021/09/03 12:06:01;;;;;;;13.43;6.77;;;17.80;99.90;;;;;;4955866;28;20788;-69
2021/09/03 12:08:31;;;;;;;13.23;6.43;;;17.80;99.90;;;;;;4954625;29;20198;-72
2021/09/03 12:11:10;;;;;;;14.67;6.70;;;17.80;99.90;;;;;;4955639;29;20420;-69
2021/09/03 12:13:42;;;;;;;11.67;5.50;;;17.80;99.90;;;;;;4955521;29;20421;-70
2021/09/03 12:16:27;;;;;;;12.20;6.53;;;17.80;99.90;;;;;;4954475;29;20442;-70
2021/09/03 12:18:57;;;;;;;12.07;6.30;;;17.80;99.90;;;;;;4955830;29;20444;-70
2021/09/03 12:21:30;;;;;;;23.17;7.77;;;17.80;99.90;;;;;;4952408;29;20458;-68
2021/09/03 12:24:03;;;;;;;14.50;5.87;;;17.80;99.90;;;;;;4955635;28;20421;-67
2021/09/03 12:26:47;;;;;;;13.63;8.77;;;17.80;99.90;;;;;;4952986;28;20516;-72
2021/09/03 12:29:17;;;;;;;12.43;6.23;;;17.80;99.90;;;;;;4956061;28;20821;-70
2021/09/03 12:31:56;;;;;;;12.07;5.33;;;17.80;99.90;;;;;;4954711;28;20817;-71
2021/09/03 12:34:25;;;;;;;14.13;7.43;;;17.80;99.90;;;;;;4954761;29;20431;-69
2021/09/03 12:37:04;;;;;;;11.63;5.67;;;17.80;99.90;;;;;;4938800;29;20413;-68
2021/09/03 12:39:33;;;;;;;12.03;6.17;;;17.80;99.90;;;;;;4953650;28;20425;-68
2021/09/03 12:42:06;;;;;;;11.83;5.73;;;17.70;99.90;;;;;;4955680;29;20183;-71
2021/09/03 12:44:33;;;;;;;12.13;6.50;;;17.80;99.90;;;;;;4956952;28;20839;-70